Time;durP1;ratioP1;P1;durP2;ratioP2;P2;SDS_P1;SDS_P2;PMS_P1;PMS_P2;Temp;Humidity;BMP_temperature;BMP_pressure;BME280_temperature;BME280_humidity;BME280_pressure;Samples;Min_cycle;Max_cycle;Signal;HPM_P1;HPM_P2
2022/09/27 00:01:11;;;;;;;7.78;6.35;;;;;;;14.71;76.78;93916.97;5029338;28;20036;-74
2022/09/27 00:03:37;;;;;;;7.57;6.68;;;;;;;14.56;77.19;93899.59;5061774;28;20077;-74
2022/09/27 00:06:07;;;;;;;10.02;7.90;;;;;;;14.47;78.26;93898.78;5071195;28;20099;-74
2022/09/27 00:08:33;;;;;;;8.02;6.57;;;;;;;14.51;78.56;93897.44;5041615;28;20037;-74
2022/09/27 00:11:07;;;;;;;7.95;6.18;;;;;;;14.39;78.54;93885.78;5048433;28;20029;-74
2022/09/27 00:13:33;;;;;;;8.55;6.88;;;;;;;14.41;78.79;93886.44;5062101;28;20111;-74
2022/09/27 00:15:59;;;;;;;9.32;6.60;;;;;;;14.45;79.23;93890.31;5064958;28;20041;-74
2022/09/27 00:18:25;;;;;;;8.82;6.78;;;;;;;14.41;79.47;93883.81;5050668;28;20052;-74
2022/09/27 00:20:50;;;;;;;9.50;5.65;;;;;;;14.45;79.55;93877.25;5064378;28;20028;-74
2022/09/27 00:23:16;;;;;;;6.38;3.50;;;;;;;14.52;78.76;93886.06;5049599;28;20159;-74
2022/09/27 00:25:41;;;;;;;4.10;3.67;;;;;;;14.71;78.45;93884.78;5061446;28;20478;-74
2022/09/27 00:28:07;;;;;;;5.22;2.90;;;;;;;14.83;77.97;93886.00;5078989;28;20439;-74
2022/09/27 00:30:33;;;;;;;4.60;2.40;;;;;;;15.16;76.71;93894.38;5061945;28;20128;-74
2022/09/27 00:32:59;;;;;;;3.67;2.05;;;;;;;15.21;75.40;93893.88;5048173;28;20441;-74
2022/09/27 00:35:24;;;;;;;3.38;2.00;;;;;;;15.37;75.33;93901.53;5059456;28;20420;-73
2022/09/27 00:37:50;;;;;;;2.47;2.17;;;;;;;15.45;75.17;93915.53;5046462;28;20500;-72
2022/09/27 00:40:16;;;;;;;2.60;2.10;;;;;;;15.45;75.71;93892.00;5031418;28;20506;-77
2022/09/27 00:42:41;;;;;;;5.47;4.68;;;;;;;15.44;74.52;93912.13;5038731;28;20423;-76
2022/09/27 00:45:12;;;;;;;9.27;6.10;;;;;;;15.49;74.54;93929.88;5068956;28;20024;-77
2022/09/27 00:47:41;;;;;;;7.05;5.60;;;;;;;15.47;74.00;93945.78;5049641;28;20032;-77
2022/09/27 00:50:29;;;;;;;7.45;5.95;;;;;;;15.34;74.41;93920.22;5047569;28;20502;-77
2022/09/27 00:53:04;;;;;;;6.70;5.85;;;;;;;15.40;74.05;93926.53;5047766;28;20426;-78
2022/09/27 00:55:33;;;;;;;6.88;6.18;;;;;;;15.39;74.14;93922.31;5065542;28;20039;-78
2022/09/27 00:57:59;;;;;;;6.68;5.57;;;;;;;15.24;75.14;93916.22;5066508;28;20520;-78
2022/09/27 01:00:24;;;;;;;6.43;5.65;;;;;;;15.25;75.44;93934.38;5050830;28;20032;-78
2022/09/27 01:02:51;;;;;;;7.72;5.97;;;;;;;15.33;75.18;93926.44;5065283;28;20036;-77
2022/09/27 01:05:19;;;;;;;7.90;6.50;;;;;;;15.32;75.46;93905.66;5045894;28;20031;-77
2022/09/27 01:07:44;;;;;;;9.52;6.40;;;;;;;15.13;75.32;93881.66;5046596;28;20418;-78
2022/09/27 01:10:10;;;;;;;8.07;5.80;;;;;;;15.07;75.19;93885.00;5033768;28;20111;-77
2022/09/27 01:12:35;;;;;;;7.13;5.95;;;;;;;14.97;75.55;93892.25;5047858;28;20083;-78
2022/09/27 01:15:38;;;;;;;6.88;6.18;;;;;;;14.70;76.56;93863.03;5066703;28;20024;-78
2022/09/27 01:18:19;;;;;;;8.00;6.15;;;;;;;14.78;76.59;93890.94;5062930;28;20675;-79
2022/09/27 01:21:02;;;;;;;8.52;6.38;;;;;;;14.90;76.44;93886.09;5069006;28;20036;-78
2022/09/27 01:23:39;;;;;;;8.70;6.28;;;;;;;14.79;76.35;93870.81;5075343;28;20040;-77
2022/09/27 01:26:29;;;;;;;13.05;8.20;;;;;;;14.54;77.82;93891.91;5049468;28;20044;-78
2022/09/27 01:29:28;;;;;;;8.43;7.15;;;;;;;14.57;78.80;93881.13;5067613;28;20036;-77
2022/09/27 01:32:04;;;;;;;7.47;6.65;;;;;;;14.55;78.47;93882.28;5055454;28;20028;-77
2022/09/27 01:34:54;;;;;;;7.80;6.85;;;;;;;14.51;78.54;93879.16;5062553;28;20074;-77
2022/09/27 01:37:35;;;;;;;8.70;7.82;;;;;;;14.39;79.62;93881.34;5067214;28;20033;-77
2022/09/27 01:40:06;;;;;;;8.45;7.53;;;;;;;14.53;78.32;93869.38;5066821;28;20099;-77
2022/09/27 01:42:34;;;;;;;;;;;;;;;14.47;78.65;93856.97;5076991;28;20036;-76
2022/09/27 01:45:03;;;;;;;8.50;6.95;;;;;;;14.34;79.09;93856.72;5070559;28;19912;-76
2022/09/27 01:47:37;;;;;;;8.52;7.55;;;;;;;14.17;79.81;93867.28;5081122;28;20109;-75
2022/09/27 01:50:14;;;;;;;10.30;8.23;;;;;;;14.09;80.95;93862.09;5048148;28;20032;-74
2022/09/27 01:52:43;;;;;;;9.45;8.35;;;;;;;14.21;80.79;93865.97;5017026;28;20032;-74
2022/09/27 01:55:09;;;;;;;9.52;8.52;;;;;;;14.25;80.74;93871.66;5016808;28;20534;-74
2022/09/27 01:57:37;;;;;;;8.90;7.88;;;;;;;14.31;79.97;93876.97;5033011;28;20068;-74
2022/09/27 02:00:08;;;;;;;8.48;7.57;;;;;;;14.37;80.27;93877.28;5033257;28;20029;-74
2022/09/27 02:03:00;;;;;;;10.10;7.60;;;;;;;14.39;80.81;93878.75;5033376;28;20495;-74
2022/09/27 02:05:29;;;;;;;8.63;7.05;;;;;;;14.50;80.05;93867.88;5049630;28;20346;-74
2022/09/27 02:08:00;;;;;;;9.10;8.20;;;;;;;14.47;79.93;93857.78;5033081;28;20041;-74
2022/09/27 02:10:34;;;;;;;8.48;7.03;;;;;;;14.61;78.56;93856.25;5032950;28;20048;-74
2022/09/27 02:13:25;;;;;;;8.38;7.18;;;;;;;14.50;78.46;93854.81;5033353;28;20033;-74
2022/09/27 02:16:18;;;;;;;9.80;7.23;;;;;;;14.20;79.77;93866.94;5016508;28;20037;-74
2022/09/27 02:18:52;;;;;;;9.85;8.07;;;;;;;14.14;80.57;93854.56;5019751;28;20044;-74
2022/09/27 02:21:18;;;;;;;9.38;8.45;;;;;;;14.22;80.17;93854.53;5049443;28;20029;-74
2022/09/27 02:23:53;;;;;;;9.13;8.10;;;;;;;14.32;79.29;93836.03;5032926;28;20426;-74
2022/09/27 02:26:43;;;;;;;8.20;7.00;;;;;;;14.36;79.22;93826.03;5017596;28;20131;-74
2022/09/27 02:29:17;;;;;;;11.85;7.05;;;;;;;14.25;79.50;93822.03;5049816;28;20398;-74
2022/09/27 02:31:43;;;;;;;8.50;7.07;;;;;;;14.13;80.05;93808.56;5029880;28;20041;-74
2022/09/27 02:34:13;;;;;;;10.35;8.73;;;;;;;13.97;81.03;93829.53;5016350;28;20457;-74
2022/09/27 02:36:38;;;;;;;10.57;8.50;;;;;;;13.95;81.30;93821.06;5049432;28;20076;-74
2022/09/27 02:39:04;;;;;;;9.02;8.10;;;;;;;14.04;81.36;93805.19;5044733;28;20048;-74
2022/09/27 02:41:29;;;;;;;9.93;7.97;;;;;;;14.02;81.46;93803.72;5056556;28;20413;-75
2022/09/27 02:43:57;;;;;;;9.45;8.00;;;;;;;14.02;81.39;93773.19;5069475;28;20390;-74
2022/09/27 02:46:43;;;;;;;8.10;7.30;;;;;;;14.04;81.00;93760.78;5034530;28;20502;-75
2022/09/27 02:49:30;;;;;;;9.70;7.22;;;;;;;13.98;81.98;93758.03;5053119;28;20449;-74
2022/09/27 02:52:11;;;;;;;8.52;7.40;;;;;;;13.92;82.42;93764.78;5067421;28;20033;-74
2022/09/27 02:54:43;;;;;;;9.47;7.37;;;;;;;13.82;83.26;93775.44;5054250;28;20112;-74
2022/09/27 02:57:16;;;;;;;7.32;6.47;;;;;;;14.03;81.03;93753.13;5036375;28;20287;-75
2022/09/27 03:00:09;;;;;;;7.32;6.00;;;;;;;14.57;77.55;93753.06;5053055;28;20059;-75
2022/09/27 03:03:01;;;;;;;7.35;6.20;;;;;;;14.78;77.91;93770.66;5037031;28;20033;-74
2022/09/27 03:05:34;;;;;;;7.30;6.53;;;;;;;14.79;78.23;93767.06;5052898;28;20086;-74
2022/09/27 03:08:00;;;;;;;7.95;7.15;;;;;;;14.96;77.95;93780.81;5019818;28;20473;-74
2022/09/27 03:10:27;;;;;;;8.70;7.60;;;;;;;14.91;77.06;93754.38;5036150;28;20053;-74
2022/09/27 03:12:53;;;;;;;7.78;6.97;;;;;;;14.91;77.98;93764.84;5036238;28;20071;-74
2022/09/27 03:15:18;;;;;;;8.15;7.18;;;;;;;14.79;77.98;93758.41;5036143;28;20036;-74
2022/09/27 03:17:44;;;;;;;9.98;7.70;;;;;;;14.86;78.04;93751.50;5035851;28;20080;-74
2022/09/27 03:20:09;;;;;;;9.57;7.90;;;;;;;14.68;78.48;93728.28;5053873;28;20078;-74
2022/09/27 03:22:36;;;;;;;10.98;8.07;;;;;;;14.64;78.71;93742.72;5052567;28;20406;-74
2022/09/27 03:25:03;;;;;;;8.93;8.02;;;;;;;14.70;79.10;93739.38;5036192;28;20502;-74
2022/09/27 03:27:29;;;;;;;8.85;7.95;;;;;;;14.69;79.08;93730.72;5052569;28;20041;-74
2022/09/27 03:29:54;;;;;;;9.88;8.30;;;;;;;14.61;79.34;93728.19;5052419;28;20036;-74
2022/09/27 03:32:19;;;;;;;12.88;8.88;;;;;;;14.60;79.24;93723.13;5053945;28;20415;-74
2022/09/27 03:34:45;;;;;;;9.65;8.65;;;;;;;14.66;79.44;93732.91;5035739;28;20079;-75
2022/09/27 03:37:10;;;;;;;10.50;8.73;;;;;;;14.66;79.32;93741.53;5035641;28;20025;-75
2022/09/27 03:39:36;;;;;;;12.80;11.50;;;;;;;14.68;79.10;93723.91;5035489;28;20029;-74
2022/09/27 03:42:01;;;;;;;12.15;9.95;;;;;;;14.81;78.46;93727.69;5053707;28;20032;-74
2022/09/27 03:44:27;;;;;;;9.23;8.23;;;;;;;14.84;78.03;93732.53;5035463;28;20036;-74
2022/09/27 03:46:52;;;;;;;9.25;8.30;;;;;;;14.70;78.63;93714.06;5060209;28;20040;-74
2022/09/27 03:49:18;;;;;;;9.13;8.20;;;;;;;14.70;78.75;93710.63;5051890;28;20025;-74
2022/09/27 03:51:43;;;;;;;10.20;9.20;;;;;;;14.71;78.54;93713.06;5035414;28;20040;-74
2022/09/27 03:54:09;;;;;;;9.57;8.52;;;;;;;14.53;78.86;93736.91;5051917;28;20032;-75
2022/09/27 03:56:35;;;;;;;9.57;8.57;;;;;;;14.54;79.24;93722.03;5018219;28;20482;-74
2022/09/27 03:59:00;;;;;;;10.65;9.15;;;;;;;14.46;79.34;93730.75;5051838;28;20037;-74
2022/09/27 04:01:26;;;;;;;10.15;8.77;;;;;;;14.34;79.99;93745.22;5035253;28;20083;-75
2022/09/27 04:03:52;;;;;;;13.40;9.02;;;;;;;14.34;79.96;93731.34;5052966;28;20029;-74
2022/09/27 04:06:17;;;;;;;11.52;9.77;;;;;;;14.34;80.17;93737.38;5051671;28;20473;-74
2022/09/27 04:08:44;;;;;;;10.43;9.25;;;;;;;14.39;80.15;93747.31;5068537;28;20029;-75
2022/09/27 04:11:09;;;;;;;10.02;9.02;;;;;;;14.51;80.16;93757.19;5051594;28;20479;-74
2022/09/27 04:13:35;;;;;;;10.90;9.00;;;;;;;14.36;80.07;93724.97;5034994;28;20115;-74
2022/09/27 04:16:01;;;;;;;9.40;8.10;;;;;;;14.40;80.15;93752.38;5052661;28;20411;-74
2022/09/27 04:18:27;;;;;;;9.88;8.63;;;;;;;14.41;80.48;93737.50;5052755;28;20086;-74
2022/09/27 04:20:52;;;;;;;10.40;8.90;;;;;;;14.48;79.97;93714.88;5034721;28;20481;-74
2022/09/27 04:23:19;;;;;;;9.52;8.60;;;;;;;14.38;80.18;93716.97;5052639;28;20021;-74
2022/09/27 04:25:44;;;;;;;10.95;9.50;;;;;;;14.24;80.59;93727.19;5051302;28;20510;-74
2022/09/27 04:28:10;;;;;;;10.60;8.60;;;;;;;14.24;81.00;93721.16;5051305;28;20037;-74
2022/09/27 04:30:35;;;;;;;10.30;9.05;;;;;;;14.21;81.05;93726.72;5034674;28;20415;-75
2022/09/27 04:33:00;;;;;;;10.13;9.13;;;;;;;14.30;80.97;93730.88;5052396;28;20044;-74
2022/09/27 04:38:10;;;;;;;13.15;11.15;;;;;;;14.40;80.59;93746.31;5058673;28;20578;-75
2022/09/27 04:40:35;;;;;;;12.05;10.20;;;;;;;14.42;80.46;93732.09;5052302;28;20025;-75
2022/09/27 04:43:02;;;;;;;12.38;9.98;;;;;;;14.46;80.38;93727.34;5050960;28;20502;-75
2022/09/27 04:45:27;;;;;;;10.80;9.70;;;;;;;14.36;80.61;93743.25;5034536;28;20021;-75
2022/09/27 04:47:53;;;;;;;12.10;10.90;;;;;;;14.51;80.16;93744.09;5034587;28;20096;-75
2022/09/27 04:50:19;;;;;;;12.73;11.27;;;;;;;14.43;80.44;93727.66;5060841;28;20024;-75
2022/09/27 04:52:52;;;;;;;12.07;10.88;;;;;;;14.31;81.06;93756.00;5033596;28;20547;-74
2022/09/27 04:55:18;;;;;;;12.05;10.82;;;;;;;14.20;81.55;93757.22;5054119;28;20029;-74
2022/09/27 04:57:43;;;;;;;13.13;11.55;;;;;;;14.20;81.86;93740.75;5058863;28;20033;-74
2022/09/27 05:00:10;;;;;;;11.73;10.52;;;;;;;14.28;81.80;93770.22;5050773;28;20067;-74
2022/09/27 05:02:35;;;;;;;12.57;11.27;;;;;;;14.28;81.72;93767.63;5034322;28;20044;-74
2022/09/27 05:05:01;;;;;;;13.38;12.07;;;;;;;14.35;81.18;93749.47;5034082;28;20021;-72
2022/09/27 05:07:26;;;;;;;12.85;11.55;;;;;;;14.40;81.26;93765.44;5032832;28;20045;-73
2022/09/27 05:09:52;;;;;;;12.93;11.70;;;;;;;14.46;80.77;93750.84;5066836;28;20032;-75
2022/09/27 05:12:18;;;;;;;13.55;12.15;;;;;;;14.41;80.88;93761.81;5050415;28;20032;-75
2022/09/27 05:14:43;;;;;;;12.73;11.43;;;;;;;14.34;81.44;93736.56;5069964;28;20108;-77
2022/09/27 05:17:09;;;;;;;15.15;13.43;;;;;;;14.28;81.85;93751.94;5053361;28;20481;-76
2022/09/27 05:19:35;;;;;;;19.77;16.15;;;;;;;14.20;82.07;93741.56;5053825;28;20037;-77
2022/09/27 05:22:00;;;;;;;16.75;14.88;;;;;;;14.26;81.92;93740.88;5051912;28;20060;-83
2022/09/27 05:24:32;;;;;;;24.63;18.67;;;;;;;14.19;82.49;93731.31;5053395;28;20033;-77
2022/09/27 05:26:58;;;;;;;18.95;16.90;;;;;;;14.31;82.16;93732.50;5035195;28;20029;-79
2022/09/27 05:29:23;;;;;;;20.95;16.92;;;;;;;14.26;82.46;93738.28;5065827;28;20024;-78
2022/09/27 05:31:49;;;;;;;16.98;15.13;;;;;;;14.35;82.32;93725.97;5021153;28;20029;-87
2022/09/27 05:34:15;;;;;;;18.60;15.50;;;;;;;14.37;82.24;93731.00;5033957;28;20552;-76
2022/09/27 05:36:40;;;;;;;17.52;15.43;;;;;;;14.32;82.55;93736.75;5035084;28;20033;-86
2022/09/27 05:39:06;;;;;;;18.38;15.93;;;;;;;14.28;82.90;93736.28;5058617;28;20032;-77
2022/09/27 05:41:32;;;;;;;16.30;14.07;;;;;;;14.35;82.99;93749.47;5087117;28;20036;-84
2022/09/27 05:43:58;;;;;;;15.68;13.98;;;;;;;14.40;82.88;93723.63;5045085;28;20521;-75
2022/09/27 05:46:23;;;;;;;13.48;12.07;;;;;;;14.52;81.97;93734.50;5080131;28;20032;-83
2022/09/27 05:48:49;;;;;;;13.85;12.45;;;;;;;14.69;81.46;93743.81;5054168;28;20033;-81
2022/09/27 05:51:14;;;;;;;13.38;11.00;;;;;;;14.41;82.23;93721.81;5058227;28;20395;-85
2022/09/27 05:53:40;;;;;;;13.35;11.57;;;;;;;14.56;82.19;93743.59;5065835;28;20680;-80
2022/09/27 05:56:05;;;;;;;14.00;12.50;;;;;;;14.33;83.19;93763.69;5071371;28;20028;-80
2022/09/27 05:58:31;;;;;;;17.33;13.68;;;;;;;14.37;83.50;93746.66;5070065;28;20413;-79
2022/09/27 06:00:57;;;;;;;15.48;13.88;;;;;;;14.59;82.15;93729.34;5035769;28;20035;-83
2022/09/27 06:03:22;;;;;;;14.50;12.90;;;;;;;14.52;82.32;93742.34;5063245;28;20021;-81
2022/09/27 06:05:48;;;;;;;14.38;12.88;;;;;;;14.50;82.74;93739.03;5036357;28;20039;-82
2022/09/27 06:08:13;;;;;;;14.20;12.80;;;;;;;14.59;82.90;93739.81;5052301;28;20089;-80
2022/09/27 06:10:39;;;;;;;15.70;13.75;;;;;;;14.66;82.29;93743.34;5051604;28;20580;-82
2022/09/27 06:13:12;;;;;;;13.65;12.25;;;;;;;14.70;81.85;93729.72;5053442;28;20036;-79
2022/09/27 06:15:39;;;;;;;16.17;13.68;;;;;;;14.51;82.32;93711.91;5046343;28;20035;-79
2022/09/27 06:18:06;;;;;;;15.32;13.73;;;;;;;14.42;83.43;93711.19;5050548;28;20115;-79
2022/09/27 06:20:32;;;;;;;17.83;13.35;;;;;;;14.61;82.51;93707.28;5042917;28;20032;-81
2022/09/27 06:23:04;;;;;;;16.52;14.82;;;;;;;14.43;83.12;93732.88;5032707;28;20033;-81
2022/09/27 06:25:30;;;;;;;17.35;15.30;;;;;;;14.50;83.39;93721.56;5049152;28;20108;-82
2022/09/27 06:27:55;;;;;;;18.52;16.30;;;;;;;14.57;83.03;93716.50;5050786;28;20025;-81
2022/09/27 06:30:20;;;;;;;20.33;16.50;;;;;;;14.36;83.40;93711.09;5033348;28;20470;-81
2022/09/27 06:32:46;;;;;;;17.00;15.20;;;;;;;14.47;83.69;93710.66;5049810;28;20029;-82
2022/09/27 06:35:11;;;;;;;17.17;14.93;;;;;;;14.66;82.68;93715.41;5050026;28;20021;-81
2022/09/27 06:37:37;;;;;;;16.77;15.07;;;;;;;14.66;83.19;93718.03;5051303;28;20418;-82
2022/09/27 06:40:02;;;;;;;18.77;16.88;;;;;;;14.52;84.28;93721.44;5051349;28;20475;-82
2022/09/27 06:42:29;;;;;;;16.63;14.75;;;;;;;14.63;84.39;93721.00;5016979;28;20052;-82
2022/09/27 06:44:54;;;;;;;16.60;14.90;;;;;;;14.73;83.77;93721.53;5033408;28;20098;-81
2022/09/27 06:47:20;;;;;;;16.55;13.38;;;;;;;14.85;83.07;93729.78;5051105;28;20472;-81
2022/09/27 06:49:45;;;;;;;17.23;15.23;;;;;;;14.94;83.02;93733.09;5049792;28;20033;-81
2022/09/27 06:52:11;;;;;;;17.38;14.80;;;;;;;15.00;82.56;93742.84;5033318;28;20033;-81
2022/09/27 06:54:36;;;;;;;15.90;14.20;;;;;;;14.99;82.13;93720.31;5033400;28;20509;-81
2022/09/27 06:57:02;;;;;;;16.73;14.13;;;;;;;15.03;82.14;93734.63;5050984;28;20025;-81
2022/09/27 07:02:12;;;;;;;17.67;13.82;;;;;;;15.10;81.79;93734.72;5036106;28;20101;-75
2022/09/27 07:04:38;;;;;;;16.17;14.23;;;;;;;15.11;81.53;93723.28;5050066;28;20045;-80
2022/09/27 07:07:03;;;;;;;17.08;13.57;;;;;;;15.25;80.87;93713.81;5049528;28;20414;-78
2022/09/27 07:09:29;;;;;;;15.40;13.50;;;;;;;15.11;80.87;93718.84;5050615;28;20033;-78
2022/09/27 07:11:54;;;;;;;16.05;13.43;;;;;;;15.04;81.51;93717.94;5032821;28;20455;-78
2022/09/27 07:14:20;;;;;;;15.00;13.50;;;;;;;15.14;81.94;93728.16;5032682;28;20060;-77
2022/09/27 07:16:46;;;;;;;15.70;14.10;;;;;;;15.04;81.95;93736.25;5050414;28;20056;-78
2022/09/27 07:19:13;;;;;;;15.75;13.52;;;;;;;15.13;81.71;93739.59;5050265;28;20029;-78
2022/09/27 07:21:38;;;;;;;16.70;13.95;;;;;;;15.11;81.71;93724.09;5050464;28;20044;-76
2022/09/27 07:24:04;;;;;;;15.40;13.73;;;;;;;15.13;81.27;93705.59;5050477;28;20029;-77
2022/09/27 07:26:29;;;;;;;16.10;14.40;;;;;;;15.05;81.51;93706.50;5050630;28;20162;-77
2022/09/27 07:28:55;;;;;;;17.50;14.27;;;;;;;14.92;82.03;93716.78;5050302;28;20043;-78
2022/09/27 07:31:21;;;;;;;16.40;14.27;;;;;;;14.89;82.77;93709.28;5050625;28;20041;-77
2022/09/27 07:33:46;;;;;;;16.23;14.38;;;;;;;14.84;82.74;93716.84;5019470;28;20034;-76
2022/09/27 07:36:12;;;;;;;17.65;15.20;;;;;;;14.93;83.04;93728.84;5053879;28;20037;-78
2022/09/27 07:38:38;;;;;;;17.67;15.27;;;;;;;14.94;83.14;93730.50;5052379;28;20048;-76
2022/09/27 07:41:12;;;;;;;18.35;14.95;;;;;;;15.08;83.15;93741.94;5019211;28;20423;-77
2022/09/27 07:43:38;;;;;;;18.05;16.08;;;;;;;15.03;82.82;93742.47;5020297;28;20036;-78
2022/09/27 07:46:04;;;;;;;21.90;17.50;;;;;;;14.99;83.05;93733.38;5053812;28;20029;-78
2022/09/27 07:48:30;;;;;;;21.20;17.27;;;;;;;14.95;83.53;93735.53;5035787;28;20033;-78
2022/09/27 07:50:55;;;;;;;21.15;17.08;;;;;;;14.89;83.57;93735.44;5052201;28;20037;-78
2022/09/27 07:53:22;;;;;;;20.67;17.05;;;;;;;15.05;83.21;93750.16;5035788;28;20029;-78
2022/09/27 07:55:52;;;;;;;23.80;17.48;;;;;;;15.17;82.81;93751.31;5035839;28;20379;-78
2022/09/27 07:58:17;;;;;;;21.67;18.48;;;;;;;14.94;83.47;93754.03;5035583;28;20039;-77
2022/09/27 08:00:43;;;;;;;21.65;18.08;;;;;;;14.93;83.52;93741.91;5035573;28;20033;-78
2022/09/27 08:03:15;;;;;;;20.25;17.13;;;;;;;15.01;82.90;93749.69;5052475;28;20029;-77
2022/09/27 08:05:45;;;;;;;22.38;16.95;;;;;;;15.01;82.92;93748.88;5035866;28;20064;-78
2022/09/27 08:08:10;;;;;;;18.88;16.15;;;;;;;15.06;83.11;93749.97;5052147;28;20066;-78
2022/09/27 08:10:36;;;;;;;19.38;16.80;;;;;;;15.05;83.35;93745.72;5018809;28;20021;-78
2022/09/27 08:13:02;;;;;;;17.58;15.43;;;;;;;15.10;83.00;93738.16;5053514;28;20029;-78
2022/09/27 08:15:28;;;;;;;17.92;16.02;;;;;;;15.12;83.24;93717.03;5035529;28;20032;-78
2022/09/27 08:17:54;;;;;;;17.98;15.55;;;;;;;15.10;82.77;93698.94;5035333;28;20052;-77
2022/09/27 08:20:19;;;;;;;16.55;14.70;;;;;;;15.12;82.85;93735.34;5051819;28;20416;-77
2022/09/27 08:22:45;;;;;;;17.95;16.15;;;;;;;15.07;83.10;93733.28;5051789;28;20029;-77
2022/09/27 08:25:10;;;;;;;16.42;14.65;;;;;;;15.13;83.32;93742.22;5035330;28;20029;-77
2022/09/27 08:27:36;;;;;;;18.73;16.73;;;;;;;15.18;83.44;93740.69;5018525;28;20045;-79
2022/09/27 08:30:02;;;;;;;20.42;16.67;;;;;;;15.22;83.48;93745.56;5052829;28;20029;-77
2022/09/27 08:32:29;;;;;;;21.55;19.20;;;;;;;15.19;83.08;93728.41;5051585;28;20033;-79
2022/09/27 08:34:55;;;;;;;20.98;18.30;;;;;;;15.34;82.79;93712.69;5051856;28;20028;-78
2022/09/27 08:37:20;;;;;;;22.73;18.35;;;;;;;15.31;81.77;93692.13;5051622;28;20044;-79
2022/09/27 08:39:46;;;;;;;24.15;19.98;;;;;;;15.16;82.68;93700.00;5034876;28;20033;-79
2022/09/27 08:42:48;;;;;;;21.90;17.23;;;;;;;15.32;83.31;93698.97;5035128;28;20477;-79
2022/09/27 08:46:05;;;;;;;22.17;19.55;;;;;;;15.39;83.06;93721.63;5022583;28;20041;-79
2022/09/27 08:48:30;;;;;;;22.02;18.77;;;;;;;15.19;83.30;93713.53;5043547;28;20052;-79
2022/09/27 08:50:56;;;;;;;19.85;17.25;;;;;;;15.29;83.05;93686.25;5051222;28;20041;-79
2022/09/27 08:53:25;;;;;;;20.08;17.27;;;;;;;15.33;82.55;93677.88;5052677;28;20558;-78
2022/09/27 08:55:52;;;;;;;17.80;15.52;;;;;;;15.31;83.31;93699.97;5035006;28;20033;-79
2022/09/27 08:58:39;;;;;;;17.65;15.05;;;;;;;15.21;83.08;93718.59;5034908;28;20086;-79
2022/09/27 09:01:15;;;;;;;15.80;14.10;;;;;;;15.23;82.72;93684.38;5051164;28;20487;-79
2022/09/27 09:03:56;;;;;;;15.07;13.43;;;;;;;15.27;82.52;93696.13;5051383;28;20392;-79
2022/09/27 09:06:23;;;;;;;15.45;13.95;;;;;;;15.18;82.62;93711.91;5036224;28;20037;-79
2022/09/27 09:08:51;;;;;;;16.30;14.60;;;;;;;15.22;82.97;93704.50;5051437;28;20112;-79
2022/09/27 09:14:41;;;;;;;15.63;14.10;;;;;;;15.46;82.36;93663.31;5052323;28;20090;-79
2022/09/27 09:17:44;;;;;;;20.25;14.45;;;;;;;15.50;82.99;93654.13;5034121;28;20588;-79
2022/09/27 09:20:27;;;;;;;17.58;13.13;;;;;;;15.50;83.23;93677.66;5052128;28;20095;-79
2022/09/27 09:23:04;;;;;;;15.32;13.52;;;;;;;15.44;83.18;93681.84;5035317;28;20091;-79
2022/09/27 09:25:54;;;;;;;14.57;13.10;;;;;;;15.40;83.04;93681.38;5051857;28;20023;-79
2022/09/27 09:28:33;;;;;;;17.73;15.65;;;;;;;15.49;83.14;93678.66;5051896;28;20129;-79
2022/09/27 09:31:05;;;;;;;16.15;14.52;;;;;;;15.59;82.95;93673.94;5034077;28;20033;-79
2022/09/27 09:33:39;;;;;;;16.05;14.35;;;;;;;15.69;82.69;93684.16;5051761;28;20064;-79
2022/09/27 09:36:10;;;;;;;16.52;14.80;;;;;;;15.61;82.81;93693.69;5018420;28;20078;-79
2022/09/27 09:38:44;;;;;;;16.05;14.38;;;;;;;15.71;82.92;93682.97;5050238;28;20035;-79
2022/09/27 09:41:15;;;;;;;17.63;14.88;;;;;;;15.71;82.99;93672.50;5051725;28;20036;-79
2022/09/27 09:43:49;;;;;;;16.55;14.63;;;;;;;15.89;82.06;93669.44;5051423;28;20028;-79
2022/09/27 09:46:33;;;;;;;15.60;14.00;;;;;;;15.88;82.09;93673.06;5050414;28;20037;-79
2022/09/27 09:49:06;;;;;;;15.32;13.73;;;;;;;15.88;82.09;93688.78;5050339;28;20033;-79
2022/09/27 09:51:35;;;;;;;14.85;13.32;;;;;;;15.93;82.25;93691.63;5050248;28;20087;-79
2022/09/27 09:54:21;;;;;;;14.90;13.32;;;;;;;16.04;82.21;93677.22;5033052;28;20067;-79
2022/09/27 09:57:11;;;;;;;14.82;13.07;;;;;;;16.02;81.29;93668.75;5018992;28;20469;-79
2022/09/27 10:00:16;;;;;;;15.13;13.52;;;;;;;15.98;81.26;93673.53;5048244;28;20422;-79
2022/09/27 10:02:43;;;;;;;14.43;12.93;;;;;;;15.89;81.96;93694.81;4996036;28;20033;-79
2022/09/27 10:05:15;;;;;;;14.60;13.10;;;;;;;15.91;82.01;93692.81;5043286;28;20090;-79
2022/09/27 10:07:41;;;;;;;16.80;14.70;;;;;;;15.96;81.45;93664.25;5034283;28;20033;-79
2022/09/27 10:10:07;;;;;;;16.17;14.57;;;;;;;15.97;81.30;93653.59;5033577;28;20025;-79
2022/09/27 10:12:32;;;;;;;16.65;14.32;;;;;;;15.93;81.55;93657.56;5033472;28;20025;-79
2022/09/27 10:15:00;;;;;;;16.15;14.45;;;;;;;15.72;82.20;93687.19;5033498;28;20035;-79
2022/09/27 10:17:37;;;;;;;19.38;17.20;;;;;;;15.64;83.07;93682.84;5050835;28;20084;-79
2022/09/27 10:20:03;;;;;;;20.70;17.98;;;;;;;15.77;83.51;93644.75;5034672;28;20033;-79
2022/09/27 10:22:37;;;;;;;18.23;16.30;;;;;;;15.84;83.36;93648.25;5033407;28;20186;-79
2022/09/27 10:25:06;;;;;;;18.92;16.08;;;;;;;15.71;83.59;93661.19;5049792;28;20029;-79
2022/09/27 10:27:45;;;;;;;18.80;15.68;;;;;;;15.78;84.27;93654.22;5033620;28;20036;-79
2022/09/27 10:30:31;;;;;;;17.65;15.85;;;;;;;15.80;84.16;93660.09;5033722;28;20422;-79
2022/09/27 10:33:15;;;;;;;19.33;15.73;;;;;;;15.83;83.97;93675.44;5033164;28;20048;-79
2022/09/27 10:35:42;;;;;;;19.15;16.45;;;;;;;15.81;84.30;93654.66;5033493;28;20428;-79
2022/09/27 10:38:22;;;;;;;19.67;16.13;;;;;;;15.93;84.04;93636.63;5033201;28;20036;-78
2022/09/27 10:40:54;;;;;;;17.08;15.27;;;;;;;16.02;83.95;93658.28;5032905;28;20098;-79
2022/09/27 10:43:33;;;;;;;16.02;14.30;;;;;;;16.05;84.20;93679.66;5033890;28;20032;-79
2022/09/27 10:46:24;;;;;;;16.65;14.00;;;;;;;16.10;83.77;93689.56;5049670;28;20541;-79
2022/09/27 10:49:07;;;;;;;15.93;13.20;;;;;;;16.21;82.83;93667.28;5043974;28;20043;-79
2022/09/27 10:51:32;;;;;;;14.63;13.00;;;;;;;16.28;82.79;93652.44;5049614;28;20033;-79
2022/09/27 10:53:59;;;;;;;14.57;12.88;;;;;;;16.34;84.43;93638.59;5033017;28;20419;-79
2022/09/27 10:56:27;;;;;;;13.85;12.48;;;;;;;16.29;84.23;93622.63;5033085;28;20083;-79
2022/09/27 10:58:53;;;;;;;13.90;12.48;;;;;;;16.27;83.70;93606.28;5032766;28;20036;-79
2022/09/27 11:01:19;;;;;;;12.52;11.23;;;;;;;16.28;83.57;93605.28;5049423;28;20399;-78
2022/09/27 11:03:47;;;;;;;14.27;11.82;;;;;;;16.34;83.02;93614.19;5032929;28;20040;-79
2022/09/27 11:06:19;;;;;;;13.13;11.82;;;;;;;16.35;83.12;93600.06;5051041;28;20044;-79
2022/09/27 11:08:47;;;;;;;13.07;11.73;;;;;;;16.34;83.81;93590.59;5053046;28;20113;-79
2022/09/27 11:11:13;;;;;;;15.68;12.73;;;;;;;16.50;83.52;93603.41;5037037;28;20033;-79
2022/09/27 11:13:38;;;;;;;13.20;11.90;;;;;;;16.59;83.48;93609.31;5054183;28;20025;-79
2022/09/27 11:16:18;;;;;;;20.08;13.55;;;;;;;16.54;83.64;93573.97;5036308;28;20036;-79
2022/09/27 11:19:07;;;;;;;15.82;12.57;;;;;;;16.84;84.18;93568.53;5052805;28;20521;-79
2022/09/27 11:21:45;;;;;;;12.98;11.60;;;;;;;16.93;83.01;93564.72;5038635;28;20123;-79
2022/09/27 11:24:29;;;;;;;12.27;10.13;;;;;;;16.89;83.04;93565.31;5054002;28;20021;-79
2022/09/27 11:27:01;;;;;;;9.82;8.82;;;;;;;16.97;82.15;93578.28;5054285;28;20037;-79
2022/09/27 11:29:58;;;;;;;12.23;9.85;;;;;;;17.05;81.23;93585.97;5053987;28;20029;-79
2022/09/27 11:32:45;;;;;;;13.43;12.02;;;;;;;17.12;82.04;93583.38;5052823;28;20044;-79
2022/09/27 11:35:20;;;;;;;14.15;12.63;;;;;;;17.23;81.91;93561.81;5053784;28;20021;-79
2022/09/27 11:37:45;;;;;;;13.15;11.75;;;;;;;17.44;81.85;93568.72;5035994;28;20060;-79
2022/09/27 11:40:20;;;;;;;14.00;11.55;;;;;;;17.51;81.88;93566.91;5053814;28;20490;-79
2022/09/27 11:42:46;;;;;;;12.85;10.50;;;;;;;17.58;80.68;93573.00;5053706;28;20103;-79
2022/09/27 11:45:30;;;;;;;11.45;10.35;;;;;;;17.74;79.85;93563.09;5053546;28;20449;-79
2022/09/27 11:48:17;;;;;;;12.60;11.40;;;;;;;17.93;80.53;93575.47;5052471;28;20041;-79